Time;durP1;ratioP1;P1;durP2;ratioP2;P2;SDS_P1;SDS_P2;PMS_P1;PMS_P2;Temp;Humidity;BMP_temperature;BMP_pressure;BME280_temperature;BME280_humidity;BME280_pressure;Samples;Min_cycle;Max_cycle;Signal;HPM_P1;HPM_P2
2024/01/02 00:02:03;;;;;;;2.88;0.88;;;;;;;19.29;34.72;99825.22;16115303;19;130485;-67
2024/01/02 00:07:25;;;;;;;8.00;1.38;;;;;;;19.25;34.27;99814.97;16112881;19;131131;-67
2024/01/02 00:12:47;;;;;;;2.80;0.50;;;;;;;19.22;34.40;99792.22;16113608;19;130117;-67
2024/01/02 00:18:08;;;;;;;1.73;0.60;;;;;;;19.20;34.41;99757.53;16112754;19;132333;-68
2024/01/02 00:23:30;;;;;;;3.10;0.70;;;;;;;19.17;34.52;99744.22;16113256;19;131515;-67
2024/01/02 00:28:52;;;;;;;1.52;0.50;;;;;;;19.16;34.79;99725.94;16113045;19;129705;-67
2024/01/02 00:34:14;;;;;;;3.78;0.52;;;;;;;19.14;34.86;99697.66;16109717;19;130653;-68
2024/01/02 00:39:37;;;;;;;1.90;0.60;;;;;;;19.10;34.79;99654.97;16110376;19;129717;-68
2024/01/02 00:44:59;;;;;;;1.55;0.70;;;;;;;19.07;34.91;99635.03;16111928;19;129348;-68
2024/01/02 00:50:22;;;;;;;1.83;0.43;;;;;;;19.04;34.75;99624.50;16110097;19;129573;-68
2024/01/02 00:55:44;;;;;;;1.85;0.57;;;;;;;19.02;35.01;99618.41;16111685;19;129759;-64
2024/01/02 01:01:06;;;;;;;1.20;0.50;;;;;;;19.00;34.71;99604.00;16104509;19;130251;-68
2024/01/02 01:06:28;;;;;;;1.27;0.40;;;;;;;18.97;34.95;99596.22;16107397;19;129338;-68
2024/01/02 01:11:50;;;;;;;0.60;0.45;;;;;;;18.95;34.66;99587.41;16106092;19;129551;-68
2024/01/02 01:17:12;;;;;;;1.58;0.68;;;;;;;18.92;35.03;99571.31;16108699;19;130571;-68
2024/01/02 01:22:33;;;;;;;1.40;0.35;;;;;;;18.89;34.77;99542.22;16124313;19;134170;-68
2024/01/02 01:27:55;;;;;;;1.65;0.40;;;;;;;18.88;35.01;99520.34;16132676;19;130117;-68
2024/01/02 01:33:17;;;;;;;1.40;0.40;;;;;;;18.87;34.95;99496.50;16132812;19;129921;-68
2024/01/02 01:38:39;;;;;;;1.65;0.30;;;;;;;18.84;34.83;99470.19;16116927;19;130401;-69
2024/01/02 01:44:01;;;;;;;2.30;0.50;;;;;;;18.83;35.17;99462.19;16119505;19;130415;-72
2024/01/02 01:49:23;;;;;;;1.35;0.50;;;;;;;18.82;35.23;99443.91;16116677;19;129675;-68
2024/01/02 01:54:45;;;;;;;1.55;0.40;;;;;;;18.80;34.94;99418.41;16117936;19;131555;-67
2024/01/02 02:00:08;;;;;;;1.20;0.30;;;;;;;18.77;34.82;99409.56;16125142;19;129564;-68
2024/01/02 02:05:32;;;;;;;0.98;0.30;;;;;;;18.77;34.98;99381.84;16123772;19;130735;-67
2024/01/02 02:10:55;;;;;;;0.85;0.28;;;;;;;18.74;34.86;99376.06;16127781;19;130739;-69
2024/01/02 02:16:17;;;;;;;1.25;0.40;;;;;;;18.73;35.20;99353.03;16125193;19;131596;-68
2024/01/02 02:21:39;;;;;;;0.30;0.20;;;;;;;18.72;35.28;99336.72;16129246;19;130893;-68
2024/01/02 02:27:02;;;;;;;0.50;0.20;;;;;;;18.71;35.27;99333.09;16123368;19;129340;-68
2024/01/02 02:32:24;;;;;;;1.23;0.10;;;;;;;18.69;35.28;99318.75;16124348;19;129266;-68
2024/01/02 02:37:47;;;;;;;0.30;0.10;;;;;;;18.69;35.47;99287.44;16108289;19;130500;-68
2024/01/02 02:43:08;;;;;;;0.08;0.08;;;;;;;18.67;35.19;99279.41;16111108;19;134326;-68
2024/01/02 02:48:30;;;;;;;0.60;0.20;;;;;;;18.67;35.32;99278.56;16106958;19;129272;-68
2024/01/02 02:53:52;;;;;;;1.13;0.20;;;;;;;18.66;35.58;99271.38;16123487;19;130685;-68
2024/01/02 02:59:14;;;;;;;0.40;0.20;;;;;;;18.64;35.48;99246.75;16123023;19;130658;-68
2024/01/02 03:04:36;;;;;;;0.70;0.20;;;;;;;18.64;35.17;99229.31;16120498;19;130861;-68
2024/01/02 03:09:58;;;;;;;0.43;0.10;;;;;;;18.61;35.47;99222.38;16115193;19;131090;-68
2024/01/02 03:15:20;;;;;;;0.40;0.10;;;;;;;18.61;35.27;99227.91;16121787;19;129148;-68
2024/01/02 03:20:42;;;;;;;0.25;0.13;;;;;;;18.58;35.73;99209.94;16123201;19;130901;-68
2024/01/02 03:26:04;;;;;;;0.00;0.00;;;;;;;18.58;35.40;99189.75;16116217;19;130201;-68
2024/01/02 03:31:27;;;;;;;0.28;0.10;;;;;;;18.57;35.85;99177.00;16118928;19;130062;-68
2024/01/02 03:36:48;;;;;;;1.55;0.10;;;;;;;18.56;35.71;99183.66;16118463;19;133731;-69
2024/01/02 03:42:11;;;;;;;0.10;0.10;;;;;;;18.54;35.46;99172.03;16117671;19;131290;-68
2024/01/02 03:47:32;;;;;;;0.17;0.00;;;;;;;18.53;35.89;99137.16;16117957;19;131500;-68
2024/01/02 03:52:54;;;;;;;0.35;0.10;;;;;;;18.51;35.66;99154.06;16117441;19;129484;-68
2024/01/02 03:58:16;;;;;;;0.00;0.00;;;;;;;18.51;36.06;99153.22;16115937;19;131145;-68
2024/01/02 04:03:38;;;;;;;0.25;0.03;;;;;;;18.49;36.02;99152.69;16114335;19;129516;-68
2024/01/02 04:09:00;;;;;;;0.00;0.00;;;;;;;18.48;35.92;99149.09;16113857;19;129938;-68
2024/01/02 04:14:22;;;;;;;0.10;0.10;;;;;;;18.48;36.24;99145.50;16115569;19;129745;-68
2024/01/02 04:19:44;;;;;;;0.10;0.00;;;;;;;18.46;36.04;99160.44;16114572;19;129549;-68
2024/01/02 04:25:07;;;;;;;0.10;0.00;;;;;;;18.45;36.21;99131.13;16115727;19;129736;-68
2024/01/02 04:30:29;;;;;;;0.30;0.10;;;;;;;18.44;36.02;99139.72;16112279;19;130673;-68
2024/01/02 04:35:51;;;;;;;0.30;0.10;;;;;;;18.43;35.98;99133.34;16113279;19;129997;-68
2024/01/02 04:41:13;;;;;;;0.13;0.10;;;;;;;18.43;36.01;99155.50;16112628;19;129632;-68
2024/01/02 04:46:35;;;;;;;0.10;0.00;;;;;;;18.42;36.16;99153.00;16114121;19;129429;-68
2024/01/02 04:51:57;;;;;;;0.90;0.10;;;;;;;18.41;36.27;99149.44;16116706;19;130466;-68
2024/01/02 04:57:19;;;;;;;0.10;0.10;;;;;;;18.40;36.68;99146.97;16115136;19;129715;-68
2024/01/02 05:02:41;;;;;;;0.10;0.00;;;;;;;18.39;36.73;99165.50;16110847;19;129433;-68
2024/01/02 05:08:03;;;;;;;0.98;0.10;;;;;;;18.38;36.68;99174.88;16109093;19;130950;-68
2024/01/02 05:13:26;;;;;;;0.10;0.00;;;;;;;18.38;36.42;99180.41;16112584;19;131110;-68
2024/01/02 05:18:47;;;;;;;0.05;0.00;;;;;;;18.37;36.92;99192.59;16113769;19;129420;-68
2024/01/02 05:24:09;;;;;;;0.00;0.00;;;;;;;18.36;36.83;99185.41;16111629;19;129432;-67
2024/01/02 05:29:31;;;;;;;0.08;0.00;;;;;;;18.35;36.70;99197.59;16106460;19;130650;-67
2024/01/02 05:34:53;;;;;;;0.43;0.00;;;;;;;18.34;37.08;99187.63;16107097;19;133833;-67
2024/01/02 05:40:15;;;;;;;0.10;0.10;;;;;;;18.33;36.77;99186.00;16105955;19;129974;-68
2024/01/02 05:45:38;;;;;;;0.10;0.10;;;;;;;18.31;37.31;99205.66;16111297;19;129439;-67
2024/01/02 05:51:02;;;;;;;0.10;0.10;;;;;;;18.32;37.12;99209.28;16110498;19;129209;-68
2024/01/02 05:56:24;;;;;;;0.00;0.00;;;;;;;18.32;37.37;99223.09;16110040;19;129627;-68
2024/01/02 06:01:46;;;;;;;0.00;0.00;;;;;;;18.31;37.38;99224.22;16107303;19;129990;-68
2024/01/02 06:07:08;;;;;;;0.00;0.00;;;;;;;18.31;37.49;99229.75;16107228;19;129940;-69
2024/01/02 06:12:30;;;;;;;0.00;0.00;;;;;;;18.43;37.23;99244.13;16112017;19;129607;-69
2024/01/02 06:17:52;;;;;;;0.00;0.00;;;;;;;18.62;37.36;99246.19;16109093;19;129490;-71
2024/01/02 06:23:15;;;;;;;0.00;0.00;;;;;;;18.90;37.15;99246.56;16110211;19;129802;-69
2024/01/02 06:28:37;;;;;;;0.00;0.00;;;;;;;19.22;36.61;99232.19;16123424;19;130589;-67
2024/01/02 06:33:59;;;;;;;0.00;0.00;;;;;;;19.50;36.26;99242.72;16122079;19;130338;-67
2024/01/02 06:39:21;;;;;;;0.05;0.00;;;;;;;19.68;36.14;99246.69;16127258;19;130389;-67
2024/01/02 06:44:43;;;;;;;0.20;0.00;;;;;;;19.79;35.97;99259.31;16128072;19;130480;-68
2024/01/02 06:50:06;;;;;;;0.00;0.00;;;;;;;19.82;35.77;99252.34;16125912;19;130423;-68
2024/01/02 06:55:28;;;;;;;0.10;0.00;;;;;;;19.83;35.67;99265.09;16125883;19;130362;-68
2024/01/02 07:00:50;;;;;;;0.32;0.05;;;;;;;19.81;36.01;99276.50;16121171;19;131164;-65
2024/01/02 07:06:12;;;;;;;3.28;0.05;;;;;;;19.83;36.87;99277.03;16120506;19;130206;-70
2024/01/02 07:11:34;;;;;;;0.57;0.10;;;;;;;19.84;36.66;99283.41;16121677;19;130670;-73
2024/01/02 07:16:56;;;;;;;1.85;0.10;;;;;;;19.84;37.16;99294.50;16123178;19;130056;-78
2024/01/02 07:22:18;;;;;;;4.38;0.32;;;;;;;19.85;37.16;99298.94;16125887;19;129607;-68
2024/01/02 07:27:40;;;;;;;3.70;0.30;;;;;;;19.88;37.42;99295.59;16120452;19;130115;-72
2024/01/02 07:33:03;;;;;;;0.10;0.00;;;;;;;19.95;37.67;99309.91;16118946;19;129778;-70
2024/01/02 07:38:26;;;;;;;2.42;0.10;;;;;;;20.04;37.58;99304.59;16122036;19;130223;-71
2024/01/02 07:43:48;;;;;;;2.58;0.30;;;;;;;20.18;37.47;99307.50;16120732;19;129676;-63
2024/01/02 07:49:10;;;;;;;0.28;0.10;;;;;;;20.22;37.52;99305.75;16121893;19;129478;-57
2024/01/02 07:54:37;;;;;;;3.50;0.20;;;;;;;20.30;37.56;99301.50;16123318;19;129541;-63
2024/01/02 07:59:59;;;;;;;6.13;0.40;;;;;;;20.34;37.32;99293.38;16121933;19;130861;-64
2024/01/02 08:05:21;;;;;;;7.15;1.02;;;;;;;20.39;37.41;99290.56;16117638;19;130041;-69
2024/01/02 08:10:43;;;;;;;4.15;0.25;;;;;;;20.48;37.58;99299.06;16116726;19;130057;-66
2024/01/02 08:16:05;;;;;;;5.78;0.20;;;;;;;20.55;37.48;99311.47;16120747;19;131849;-63
2024/01/02 08:21:27;;;;;;;0.52;0.13;;;;;;;20.64;37.44;99296.88;16122814;19;129469;-64
2024/01/02 08:26:49;;;;;;;4.40;0.20;;;;;;;20.71;37.45;99306.50;16117004;19;133910;-68
2024/01/02 08:32:11;;;;;;;1.25;0.10;;;;;;;20.81;37.32;99304.72;16115805;19;129718;-68
2024/01/02 08:37:33;;;;;;;2.58;0.20;;;;;;;20.89;37.50;99309.59;16116018;19;130944;-66
2024/01/02 08:42:54;;;;;;;2.78;0.20;;;;;;;20.98;37.00;99309.75;16116519;19;129499;-69
2024/01/02 08:48:16;;;;;;;1.45;0.10;;;;;;;21.06;37.22;99307.13;16111346;19;130671;-70
2024/01/02 08:53:39;;;;;;;0.73;0.20;;;;;;;21.13;36.83;99297.56;16119754;19;129583;-70
2024/01/02 08:59:02;;;;;;;2.35;0.10;;;;;;;21.17;36.99;99291.06;16118404;19;129211;-70
2024/01/02 09:04:24;;;;;;;2.20;0.20;;;;;;;21.21;36.76;99272.66;16116757;19;129863;-72
2024/01/02 09:09:48;;;;;;;2.17;0.40;;;;;;;21.27;36.81;99258.69;16117733;19;129957;-76
2024/01/02 09:15:10;;;;;;;0.52;0.17;;;;;;;21.25;36.61;99256.19;16113693;19;129666;-74
2024/01/02 09:20:32;;;;;;;1.23;0.20;;;;;;;21.20;36.88;99245.97;16116913;19;131962;-63
2024/01/02 09:25:59;;;;;;;4.13;0.40;;;;;;;21.17;36.79;99235.47;16109817;19;131599;-64
2024/01/02 09:31:25;;;;;;;6.47;0.25;;;;;;;21.17;36.35;99218.78;16110330;19;129438;-64
2024/01/02 09:36:50;;;;;;;2.05;0.25;;;;;;;21.16;36.59;99213.53;16113166;19;129566;-64
2024/01/02 09:42:34;;;;;;;1.77;0.20;;;;;;;21.17;36.65;99204.88;16113703;19;131468;-64
2024/01/02 09:48:16;;;;;;;3.50;0.20;;;;;;;21.17;36.83;99223.53;16106161;19;130502;-64
2024/01/02 09:54:06;;;;;;;3.45;0.40;;;;;;;21.18;36.57;99239.09;16106228;19;129665;-64
2024/01/02 10:00:12;;;;;;;3.13;0.20;;;;;;;21.17;36.85;99249.38;16105603;19;130170;-63
2024/01/02 10:06:15;;;;;;;5.32;0.20;;;;;;;21.15;36.78;99240.53;16106277;19;130695;-64
2024/01/02 10:12:03;;;;;;;4.50;0.30;;;;;;;21.18;36.88;99217.66;16096013;19;130035;-64
2024/01/02 10:17:46;;;;;;;3.15;0.30;;;;;;;21.20;37.05;99218.16;16095833;19;130301;-64
2024/01/02 10:23:50;;;;;;;1.20;0.28;;;;;;;21.22;37.11;99213.13;16097047;19;130327;-64
2024/01/02 10:29:22;;;;;;;2.53;0.20;;;;;;;21.25;36.85;99191.41;16091040;19;130724;-64
2024/01/02 10:35:06;;;;;;;4.95;0.85;;;;;;;21.28;37.12;99188.84;16087876;19;131425;-64
2024/01/02 10:40:28;;;;;;;3.05;0.20;;;;;;;21.30;36.90;99185.72;16089820;19;130179;-64
2024/01/02 10:46:11;;;;;;;2.47;0.20;;;;;;;21.36;37.14;99163.06;16083113;19;131809;-63
2024/01/02 10:51:47;;;;;;;4.43;0.20;;;;;;;21.45;37.00;99154.84;16089990;19;131364;-64
2024/01/02 10:57:19;;;;;;;3.67;0.20;;;;;;;21.55;37.17;99141.88;16092438;19;134179;-64
2024/01/02 11:02:46;;;;;;;3.17;0.10;;;;;;;21.67;36.63;99131.91;16089681;19;131968;-64
2024/01/02 11:08:20;;;;;;;0.52;0.20;;;;;;;21.74;36.81;99112.00;16091729;19;131605;-63
2024/01/02 11:13:46;;;;;;;2.25;0.30;;;;;;;21.82;36.73;99102.91;16114931;19;130318;-64
2024/01/02 11:19:13;;;;;;;0.50;0.10;;;;;;;21.92;36.50;99081.53;16120125;19;129673;-64
2024/01/02 11:24:42;;;;;;;0.10;0.10;;;;;;;21.97;36.25;99061.94;16117546;19;129945;-63
2024/01/02 11:30:10;;;;;;;0.30;0.15;;;;;;;22.01;36.49;99054.59;16113299;19;130953;-63
2024/01/02 11:36:00;;;;;;;1.50;0.15;;;;;;;22.03;36.58;99046.72;16107346;19;131927;-64
2024/01/02 11:41:56;;;;;;;1.60;0.20;;;;;;;22.01;36.14;99020.34;16119211;19;129398;-63
2024/01/02 11:47:44;;;;;;;0.17;0.00;;;;;;;21.94;36.56;99007.72;16112160;19;130107;-63
2024/01/02 11:53:26;;;;;;;0.32;0.10;;;;;;;21.86;36.53;99000.09;16112727;19;130106;-63
2024/01/02 11:59:03;;;;;;;3.28;0.50;;;;;;;21.76;36.91;98992.00;16108866;19;129345;-63
2024/01/02 12:04:56;;;;;;;2.92;0.32;;;;;;;21.71;36.66;98962.31;16111299;19;131221;-63
2024/01/02 12:10:21;;;;;;;2.80;0.63;;;;;;;21.66;37.17;98948.56;16112848;19;129625;-66
2024/01/02 12:15:42;;;;;;;0.57;0.20;;;;;;;21.66;37.31;98921.53;16111352;19;129644;-66
2024/01/02 12:21:18;;;;;;;1.85;0.15;;;;;;;21.65;37.17;98919.06;16116157;19;130027;-66
2024/01/02 12:26:42;;;;;;;3.03;0.28;;;;;;;21.62;37.31;98916.91;16115054;19;131115;-66
2024/01/02 12:32:16;;;;;;;1.23;0.20;;;;;;;21.55;37.77;98908.16;16110928;19;129980;-66
2024/01/02 12:38:07;;;;;;;12.32;0.30;;;;;;;21.49;37.46;98891.63;16111234;19;129656;-66
2024/01/02 12:43:32;;;;;;;0.90;0.20;;;;;;;21.47;37.51;98884.69;16111548;19;131873;-66
2024/01/02 12:49:07;;;;;;;0.75;0.10;;;;;;;21.42;37.28;98863.38;16108920;19;132950;-66
2024/01/02 12:54:40;;;;;;;1.30;0.30;;;;;;;21.35;37.31;98849.91;16110228;19;130642;-65
2024/01/02 13:00:05;;;;;;;3.53;0.43;;;;;;;21.29;37.45;98836.47;16109904;19;129918;-65
2024/01/02 13:05:27;;;;;;;3.15;0.38;;;;;;;21.22;37.67;98829.38;16109318;19;130900;-68
2024/01/02 13:10:50;;;;;;;0.95;0.30;;;;;;;21.16;37.63;98813.97;16111270;19;130006;-65
2024/01/02 13:16:13;;;;;;;2.80;0.30;;;;;;;21.12;37.71;98801.81;16108806;19;129695;-65
2024/01/02 13:21:37;;;;;;;3.75;0.60;;;;;;;21.10;37.43;98790.19;16111488;19;130013;-65
2024/01/02 13:26:59;;;;;;;7.13;0.57;;;;;;;21.09;37.24;98785.75;16111554;19;130053;-65
2024/01/02 13:32:24;;;;;;;6.28;0.55;;;;;;;21.09;37.17;98774.63;16108668;19;129564;-66
2024/01/02 13:37:48;;;;;;;5.03;0.43;;;;;;;21.09;37.30;98763.50;16108069;19;130669;-65
2024/01/02 13:43:11;;;;;;;3.40;0.30;;;;;;;21.09;37.63;98757.16;16114742;19;129508;-65
2024/01/02 13:48:34;;;;;;;4.05;0.28;;;;;;;21.09;37.34;98730.16;16104158;19;131163;-65
2024/01/02 13:54:01;;;;;;;2.15;0.20;;;;;;;21.13;37.45;98714.50;16108391;19;129374;-65
2024/01/02 13:59:34;;;;;;;3.08;0.52;;;;;;;21.15;37.56;98695.53;16107796;19;129605;-65
2024/01/02 14:04:59;;;;;;;2.67;0.40;;;;;;;21.17;37.37;98687.66;16105506;19;129851;-65
2024/01/02 14:10:26;;;;;;;2.38;0.40;;;;;;;21.19;37.30;98671.50;16108957;19;130470;-65
2024/01/02 14:15:48;;;;;;;2.10;0.22;;;;;;;21.20;37.29;98664.78;16108024;19;129540;-65
2024/01/02 14:21:15;;;;;;;1.70;0.57;;;;;;;21.21;37.05;98651.72;16113963;19;130194;-65
2024/01/02 14:27:00;;;;;;;3.03;0.30;;;;;;;21.21;37.03;98638.63;16116474;19;130303;-64
2024/01/02 14:32:43;;;;;;;5.53;0.40;;;;;;;21.19;37.43;98624.22;16108254;19;130230;-65
2024/01/02 14:38:42;;;;;;;0.57;0.20;;;;;;;21.16;37.17;98597.09;16107687;19;131993;-64
2024/01/02 14:44:13;;;;;;;0.43;0.30;;;;;;;21.11;37.14;98582.50;16110292;19;129464;-65
2024/01/02 14:49:37;;;;;;;1.30;0.28;;;;;;;21.09;37.59;98568.09;16124872;19;129558;-64
2024/01/02 14:55:11;;;;;;;1.27;0.20;;;;;;;21.10;37.70;98564.19;16120868;19;131177;-66
2024/01/02 15:00:34;;;;;;;1.17;0.15;;;;;;;21.08;37.53;98549.78;16117424;19;130088;-67
2024/01/02 15:06:04;;;;;;;1.30;0.20;;;;;;;21.10;37.54;98533.59;16121934;19;130218;-66
2024/01/02 15:11:32;;;;;;;0.73;0.30;;;;;;;21.11;38.04;98524.94;16127687;19;130157;-66
2024/01/02 15:17:13;;;;;;;3.53;0.30;;;;;;;21.14;37.73;98515.94;16121789;19;129681;-66
2024/01/02 15:22:56;;;;;;;1.48;0.22;;;;;;;21.16;37.68;98502.56;16117314;19;130938;-66
2024/01/02 15:28:27;;;;;;;2.67;0.28;;;;;;;21.17;38.09;98498.59;16121704;19;129583;-67
2024/01/02 15:34:12;;;;;;;7.72;0.30;;;;;;;21.15;38.11;98489.78;16118363;19;129871;-64
2024/01/02 15:40:11;;;;;;;2.97;0.25;;;;;;;21.15;38.18;98489.78;16120146;19;130668;-66
2024/01/02 15:45:37;;;;;;;1.33;0.20;;;;;;;21.14;38.51;98490.94;16117044;19;130601;-66
2024/01/02 15:51:11;;;;;;;5.20;0.30;;;;;;;21.12;38.47;98468.19;16113951;19;129709;-66
2024/01/02 15:56:35;;;;;;;5.97;0.40;;;;;;;21.10;38.47;98464.91;16113720;19;131098;-61
2024/01/02 16:02:06;;;;;;;2.03;0.28;;;;;;;21.12;38.68;98456.22;16118054;19;130347;-67
2024/01/02 16:07:49;;;;;;;2.10;0.30;;;;;;;21.04;38.71;98457.88;16112161;19;130398;-66
2024/01/02 16:13:36;;;;;;;6.20;0.45;;;;;;;20.99;38.55;98441.34;16112362;19;129755;-65
2024/01/02 16:19:01;;;;;;;3.88;0.40;;;;;;;21.02;38.63;98435.13;16114331;19;129762;-66
2024/01/02 16:24:45;;;;;;;1.83;0.20;;;;;;;21.11;38.17;98444.31;16112731;19;130566;-65
2024/01/02 16:30:25;;;;;;;2.03;0.30;;;;;;;21.18;38.35;98444.63;16114203;19;129873;-65
2024/01/02 16:35:53;;;;;;;1.77;0.63;;;;;;;21.26;37.97;98431.09;16108808;19;130509;-65
2024/01/02 16:41:24;;;;;;;2.17;0.47;;;;;;;21.27;38.32;98419.63;16115303;19;129984;-67
2024/01/02 16:46:48;;;;;;;2.78;0.95;;;;;;;21.31;38.08;98437.31;16118199;19;131287;-79
2024/01/02 16:52:24;;;;;;;1.92;0.40;;;;;;;21.39;38.19;98416.22;16115048;19;131119;-66
2024/01/02 16:57:46;;;;;;;1.58;0.38;;;;;;;21.43;38.28;98433.06;16112954;19;129423;-66
2024/01/02 17:03:08;;;;;;;3.10;0.63;;;;;;;21.49;38.01;98431.78;16098569;19;131838;-67
2024/01/02 17:08:31;;;;;;;2.20;0.65;;;;;;;21.56;38.22;98414.59;16103697;19;130456;-66
2024/01/02 17:13:53;;;;;;;1.48;0.60;;;;;;;21.62;38.20;98430.00;16102996;19;130175;-66
2024/01/02 17:19:17;;;;;;;1.70;0.60;;;;;;;21.66;38.44;98436.56;16104739;19;130838;-66
2024/01/02 17:24:41;;;;;;;1.52;0.60;;;;;;;21.70;38.35;98428.38;16101192;19;130212;-66
2024/01/02 17:30:07;;;;;;;1.85;0.50;;;;;;;21.73;38.41;98420.16;16106888;19;129717;-66
2024/01/02 17:35:32;;;;;;;1.77;0.45;;;;;;;21.77;38.22;98410.03;16104918;19;135020;-67
2024/01/02 17:40:54;;;;;;;2.05;0.50;;;;;;;21.78;38.49;98402.47;16104484;19;131285;-66
2024/01/02 17:46:16;;;;;;;3.03;0.47;;;;;;;21.78;38.61;98406.09;16108526;19;130035;-66
2024/01/02 17:51:39;;;;;;;1.27;0.40;;;;;;;21.78;38.76;98417.22;16106889;19;129721;-66
2024/01/02 17:57:23;;;;;;;7.78;0.60;;;;;;;21.71;38.46;98422.47;16106803;19;129719;-66
2024/01/02 18:02:47;;;;;;;4.88;0.70;;;;;;;21.72;38.45;98429.66;16112767;19;129456;-71
2024/01/02 18:08:27;;;;;;;6.15;0.52;;;;;;;21.82;38.38;98467.47;16110234;19;129792;-72
2024/01/02 18:14:00;;;;;;;14.73;0.98;;;;;;;21.98;38.09;98437.16;16112668;19;130411;-72
2024/01/02 18:19:43;;;;;;;8.18;1.30;;;;;;;22.18;37.86;98462.69;16117943;19;129622;-72
2024/01/02 18:25:23;;;;;;;13.05;1.42;;;;;;;22.34;37.56;98449.91;16127415;19;131222;-72
2024/01/02 18:31:09;;;;;;;10.07;1.02;;;;;;;22.50;37.45;98457.72;16124387;19;130492;-72
2024/01/02 18:36:49;;;;;;;10.32;1.02;;;;;;;22.63;36.91;98467.84;16128128;19;130668;-72
2024/01/02 18:42:26;;;;;;;9.95;1.23;;;;;;;22.73;36.69;98456.31;16126315;19;131459;-71
2024/01/02 18:48:05;;;;;;;8.15;1.15;;;;;;;22.82;36.47;98436.78;16124846;19;129589;-71
2024/01/02 18:53:35;;;;;;;8.13;1.23;;;;;;;22.86;36.18;98443.28;16126115;19;133964;-71
2024/01/02 18:58:57;;;;;;;4.00;1.10;;;;;;;22.91;36.38;98436.75;16123564;19;131664;-71
2024/01/02 19:04:19;;;;;;;5.70;1.02;;;;;;;22.94;36.20;98443.63;16122557;19;130256;-72
2024/01/02 19:09:47;;;;;;;12.23;2.00;;;;;;;22.94;35.44;98472.31;16120710;19;130074;-72
2024/01/02 19:15:09;;;;;;;11.93;1.73;;;;;;;22.87;35.49;98483.16;16121046;19;130615;-69
2024/01/02 19:20:33;;;;;;;10.93;1.60;;;;;;;22.84;35.85;98492.19;16114226;19;130369;-62
2024/01/02 19:25:55;;;;;;;10.45;1.48;;;;;;;22.81;35.70;98501.22;16116369;19;130932;-66
2024/01/02 19:31:16;;;;;;;6.85;1.27;;;;;;;22.77;35.41;98523.38;16112851;19;131798;-61
2024/01/02 19:36:40;;;;;;;8.02;1.73;;;;;;;22.70;35.56;98540.59;16119121;19;131316;-74
2024/01/02 19:42:03;;;;;;;15.82;2.10;;;;;;;22.65;35.47;98531.59;16118997;19;129986;-63
2024/01/02 19:47:25;;;;;;;16.90;1.92;;;;;;;22.49;35.87;98523.75;16118746;19;130698;-64
2024/01/02 19:52:47;;;;;;;20.40;2.20;;;;;;;22.40;35.57;98554.41;16119647;19;131468;-65
2024/01/02 19:58:11;;;;;;;16.25;2.72;;;;;;;22.33;35.94;98561.66;16122264;19;131193;-62
2024/01/02 20:03:35;;;;;;;13.63;1.73;;;;;;;22.35;35.70;98556.56;16118375;19;130276;-65
2024/01/02 20:08:57;;;;;;;11.23;1.60;;;;;;;22.37;35.73;98545.91;16115650;19;129502;-63
2024/01/02 20:14:49;;;;;;;15.38;2.08;;;;;;;22.38;35.65;98567.88;16116430;19;130604;-64
2024/01/02 20:20:51;;;;;;;15.13;2.38;;;;;;;22.35;35.80;98579.66;16116663;19;129761;-61
2024/01/02 20:26:16;;;;;;;11.35;1.80;;;;;;;22.26;35.48;98582.44;16111424;19;131338;-61
2024/01/02 20:31:46;;;;;;;9.30;1.75;;;;;;;22.21;35.72;98568.72;16108826;19;130789;-61
2024/01/02 20:37:24;;;;;;;8.70;1.30;;;;;;;22.22;35.37;98583.44;16110150;19;130947;-61
2024/01/02 20:42:49;;;;;;;7.15;1.58;;;;;;;22.30;35.42;98606.88;16108486;19;130692;-61
2024/01/02 20:48:13;;;;;;;;;;;;;;;22.40;34.84;98615.69;16107420;19;130959;-61
2024/01/02 20:53:44;;;;;;;8.63;1.48;;;;;;;22.56;34.94;98606.84;16109472;19;129674;-61
2024/01/02 20:59:11;;;;;;;3.90;1.40;;;;;;;22.67;34.83;98612.91;16109717;19;131668;-60
2024/01/02 21:04:45;;;;;;;6.28;1.65;;;;;;;22.77;34.55;98617.31;16110026;19;131021;-61
2024/01/02 21:10:49;;;;;;;5.50;1.58;;;;;;;22.81;34.03;98632.22;16112472;19;129618;-61
2024/01/02 21:16:16;;;;;;;5.25;1.33;;;;;;;22.77;34.68;98601.41;16110205;19;129551;-61
2024/01/02 21:21:41;;;;;;;6.65;1.60;;;;;;;22.69;34.48;98622.56;16106801;19;129348;-61
2024/01/02 21:27:03;;;;;;;3.55;1.40;;;;;;;22.59;34.62;98643.22;16105449;19;129855;-61
2024/01/02 21:32:26;;;;;;;9.88;1.85;;;;;;;22.46;34.41;98643.41;16105468;19;129479;-60
2024/01/02 21:37:48;;;;;;;7.20;1.52;;;;;;;22.32;34.54;98652.75;16100812;19;130986;-60
2024/01/02 21:43:23;;;;;;;6.40;1.63;;;;;;;22.21;34.61;98645.84;16105778;19;129555;-60
2024/01/02 21:48:53;;;;;;;9.18;1.85;;;;;;;22.06;34.62;98667.41;16104373;19;132186;-60
2024/01/02 21:54:34;;;;;;;6.30;1.70;;;;;;;21.94;34.63;98658.88;16105164;19;130362;-61
2024/01/02 21:59:56;;;;;;;10.55;2.58;;;;;;;21.79;34.74;98657.38;16103414;19;130340;-60
2024/01/02 22:05:18;;;;;;;5.80;1.50;;;;;;;21.70;34.80;98678.81;16102522;19;132029;-61
2024/01/02 22:10:42;;;;;;;6.10;1.58;;;;;;;21.57;34.68;98683.31;16101261;19;131524;-61
2024/01/02 22:16:06;;;;;;;6.95;1.55;;;;;;;21.48;35.02;98708.28;16100481;19;131762;-60
2024/01/02 22:21:37;;;;;;;6.90;1.87;;;;;;;21.38;35.09;98714.97;16101921;19;130784;-60
2024/01/02 22:27:08;;;;;;;7.43;1.85;;;;;;;21.30;35.09;98724.91;16100969;19;130750;-61
2024/01/02 22:32:30;;;;;;;9.45;2.30;;;;;;;21.20;35.48;98737.09;16102288;19;131596;-60
2024/01/02 22:37:52;;;;;;;6.10;1.80;;;;;;;21.12;35.20;98740.66;16104892;19;129647;-60
2024/01/02 22:43:16;;;;;;;9.73;2.33;;;;;;;21.04;35.31;98749.75;16092907;19;130685;-61
2024/01/02 22:48:38;;;;;;;8.98;2.20;;;;;;;20.96;35.13;98770.78;16097390;19;130779;-60
2024/01/02 22:54:00;;;;;;;5.53;1.70;;;;;;;20.90;35.46;98756.19;16098744;19;129482;-60
2024/01/02 22:59:22;;;;;;;10.20;2.72;;;;;;;20.85;35.69;98769.38;16101179;19;129486;-60
2024/01/02 23:04:45;;;;;;;10.68;2.53;;;;;;;20.80;35.68;98775.06;16100241;19;130436;-60
2024/01/02 23:10:10;;;;;;;8.68;2.28;;;;;;;20.75;35.36;98787.09;16119383;19;129075;-61
2024/01/02 23:16:08;;;;;;;8.80;1.90;;;;;;;20.68;35.34;98812.50;16112287;19;130710;-61
2024/01/02 23:21:30;;;;;;;9.05;2.47;;;;;;;20.63;35.66;98839.59;16115175;19;130128;-61
2024/01/02 23:26:54;;;;;;;10.00;2.28;;;;;;;20.57;35.44;98839.69;16116484;19;129541;-62
2024/01/02 23:32:17;;;;;;;11.80;2.40;;;;;;;20.53;35.53;98835.91;16118344;19;129373;-61
2024/01/02 23:37:39;;;;;;;8.55;2.13;;;;;;;20.48;35.97;98838.78;16112087;19;129910;-61
2024/01/02 23:43:02;;;;;;;7.97;2.10;;;;;;;20.43;35.64;98836.94;16112249;19;130810;-61
2024/01/02 23:48:24;;;;;;;10.02;2.22;;;;;;;20.41;35.93;98835.59;16114276;19;130993;-61
2024/01/02 23:53:48;;;;;;;7.85;2.05;;;;;;;20.38;35.85;98850.09;16110663;19;132090;-60
2024/01/02 23:59:11;;;;;;;8.55;2.05;;;;;;;20.35;36.33;98850.72;16113534;19;130501;-61
